Terminal Aerodrome Forecast
Issued by NWS Jackson, KY

Home | Current Version | Previous Version | Text Only | Print | Product List | Glossary On
Versions: 1 2 3 4 5 6 7 8 9 10 11 12 13 14 15 16
000
FTUS43 KJKL 130500
TAFJKL
TAF
KJKL 130540Z 1306/1406 35003KT 6SM BR OVC007
     FM131000 35003KT 2SM BR OVC004
     FM131400 35003KT P6SM OVC007
     FM131700 36002KT P6SM OVC015
     FM132100 00000KT P6SM SCT022 BKN035=

USA.gov is the U.S. government's official web portal to all federal, state and local government web resources and services.